sensor_id;sensor_type;location;lat;lon;timestamp;P1;durP1;ratioP1;P2;durP2;ratioP2
19848;SDS011;10085;51.120;6.956;2023-05-10T00:02:05;8.57;;;5.03;;
19848;SDS011;10085;51.120;6.956;2023-05-10T00:07:09;9.90;;;5.68;;
19848;SDS011;10085;51.120;6.956;2023-05-10T00:12:12;7.40;;;4.85;;
19848;SDS011;10085;51.120;6.956;2023-05-10T00:17:15;10.10;;;5.50;;
19848;SDS011;10085;51.120;6.956;2023-05-10T00:22:19;10.15;;;5.72;;
19848;SDS011;10085;51.120;6.956;2023-05-10T00:27:22;9.48;;;5.65;;
19848;SDS011;10085;51.120;6.956;2023-05-10T00:32:24;11.52;;;6.30;;
19848;SDS011;10085;51.120;6.956;2023-05-10T00:37:29;10.32;;;6.00;;
19848;SDS011;10085;51.120;6.956;2023-05-10T00:42:31;11.82;;;6.45;;
19848;SDS011;10085;51.120;6.956;2023-05-10T00:47:34;13.32;;;6.38;;
19848;SDS011;10085;51.120;6.956;2023-05-10T00:52:38;14.23;;;6.95;;
19848;SDS011;10085;51.120;6.956;2023-05-10T00:57:41;12.05;;;6.38;;
19848;SDS011;10085;51.120;6.956;2023-05-10T01:02:44;11.13;;;5.80;;
19848;SDS011;10085;51.120;6.956;2023-05-10T01:07:49;12.88;;;5.95;;
19848;SDS011;10085;51.120;6.956;2023-05-10T01:12:52;13.23;;;6.00;;
19848;SDS011;10085;51.120;6.956;2023-05-10T01:17:55;15.85;;;6.45;;
19848;SDS011;10085;51.120;6.956;2023-05-10T01:28:44;15.10;;;6.28;;
19848;SDS011;10085;51.120;6.956;2023-05-10T01:34:02;10.70;;;5.88;;
19848;SDS011;10085;51.120;6.956;2023-05-10T01:39:11;12.85;;;5.93;;
19848;SDS011;10085;51.120;6.956;2023-05-10T01:44:20;10.55;;;5.13;;
19848;SDS011;10085;51.120;6.956;2023-05-10T01:49:29;11.52;;;5.95;;
19848;SDS011;10085;51.120;6.956;2023-05-10T01:54:33;13.63;;;6.10;;
19848;SDS011;10085;51.120;6.956;2023-05-10T01:59:36;7.28;;;3.80;;
19848;SDS011;10085;51.120;6.956;2023-05-10T02:04:43;8.77;;;4.45;;
19848;SDS011;10085;51.120;6.956;2023-05-10T02:09:47;8.98;;;3.97;;
19848;SDS011;10085;51.120;6.956;2023-05-10T02:14:50;8.70;;;4.50;;
19848;SDS011;10085;51.120;6.956;2023-05-10T02:19:55;9.48;;;4.40;;
19848;SDS011;10085;51.120;6.956;2023-05-10T02:24:59;7.30;;;3.92;;
19848;SDS011;10085;51.120;6.956;2023-05-10T02:30:02;8.52;;;4.60;;
19848;SDS011;10085;51.120;6.956;2023-05-10T02:35:07;9.98;;;5.03;;
19848;SDS011;10085;51.120;6.956;2023-05-10T02:40:11;10.35;;;5.10;;
19848;SDS011;10085;51.120;6.956;2023-05-10T02:45:15;10.10;;;5.80;;
19848;SDS011;10085;51.120;6.956;2023-05-10T02:50:21;11.15;;;5.38;;
19848;SDS011;10085;51.120;6.956;2023-05-10T02:55:25;10.75;;;5.10;;
19848;SDS011;10085;51.120;6.956;2023-05-10T03:00:29;9.13;;;5.35;;
19848;SDS011;10085;51.120;6.956;2023-05-10T03:05:33;11.98;;;6.25;;
19848;SDS011;10085;51.120;6.956;2023-05-10T03:10:38;12.45;;;6.13;;
19848;SDS011;10085;51.120;6.956;2023-05-10T03:15:47;13.23;;;6.20;;
19848;SDS011;10085;51.120;6.956;2023-05-10T03:20:54;14.23;;;5.68;;
19848;SDS011;10085;51.120;6.956;2023-05-10T03:26:00;12.48;;;6.25;;
19848;SDS011;10085;51.120;6.956;2023-05-10T03:31:04;14.15;;;6.13;;
19848;SDS011;10085;51.120;6.956;2023-05-10T03:36:09;12.73;;;6.63;;
19848;SDS011;10085;51.120;6.956;2023-05-10T03:41:12;15.63;;;6.88;;
19848;SDS011;10085;51.120;6.956;2023-05-10T03:46:15;13.18;;;6.75;;
19848;SDS011;10085;51.120;6.956;2023-05-10T03:51:20;12.65;;;6.30;;
19848;SDS011;10085;51.120;6.956;2023-05-10T03:56:23;15.57;;;7.55;;
19848;SDS011;10085;51.120;6.956;2023-05-10T04:01:26;16.88;;;7.40;;
19848;SDS011;10085;51.120;6.956;2023-05-10T04:06:30;19.50;;;8.65;;
19848;SDS011;10085;51.120;6.956;2023-05-10T04:11:33;15.75;;;7.93;;
19848;SDS011;10085;51.120;6.956;2023-05-10T04:16:36;16.85;;;8.00;;
19848;SDS011;10085;51.120;6.956;2023-05-10T04:21:40;15.63;;;8.32;;
19848;SDS011;10085;51.120;6.956;2023-05-10T04:26:42;18.48;;;8.48;;
19848;SDS011;10085;51.120;6.956;2023-05-10T04:31:45;19.05;;;8.63;;
19848;SDS011;10085;51.120;6.956;2023-05-10T04:36:49;23.88;;;10.35;;
19848;SDS011;10085;51.120;6.956;2023-05-10T04:41:52;23.17;;;10.25;;
19848;SDS011;10085;51.120;6.956;2023-05-10T04:46:54;26.70;;;11.32;;
19848;SDS011;10085;51.120;6.956;2023-05-10T04:51:58;29.38;;;12.13;;
19848;SDS011;10085;51.120;6.956;2023-05-10T04:57:01;26.00;;;11.50;;
19848;SDS011;10085;51.120;6.956;2023-05-10T05:02:04;23.13;;;9.90;;
19848;SDS011;10085;51.120;6.956;2023-05-10T05:07:08;35.88;;;12.15;;
19848;SDS011;10085;51.120;6.956;2023-05-10T05:12:11;33.33;;;12.77;;
19848;SDS011;10085;51.120;6.956;2023-05-10T05:17:15;29.77;;;12.70;;
19848;SDS011;10085;51.120;6.956;2023-05-10T05:22:19;30.45;;;13.60;;
19848;SDS011;10085;51.120;6.956;2023-05-10T05:27:28;28.73;;;12.15;;
19848;SDS011;10085;51.120;6.956;2023-05-10T05:32:31;34.72;;;14.52;;
19848;SDS011;10085;51.120;6.956;2023-05-10T05:37:35;30.35;;;13.27;;
19848;SDS011;10085;51.120;6.956;2023-05-10T05:42:38;27.38;;;12.32;;
19848;SDS011;10085;51.120;6.956;2023-05-10T05:47:41;25.30;;;11.00;;
19848;SDS011;10085;51.120;6.956;2023-05-10T05:52:45;30.13;;;11.80;;
19848;SDS011;10085;51.120;6.956;2023-05-10T05:57:47;24.08;;;11.50;;
19848;SDS011;10085;51.120;6.956;2023-05-10T06:02:50;13.73;;;7.72;;
19848;SDS011;10085;51.120;6.956;2023-05-10T06:07:54;19.45;;;9.05;;
19848;SDS011;10085;51.120;6.956;2023-05-10T06:12:57;17.67;;;9.43;;
19848;SDS011;10085;51.120;6.956;2023-05-10T06:18:00;20.75;;;10.55;;
19848;SDS011;10085;51.120;6.956;2023-05-10T06:28:36;19.25;;;10.02;;
19848;SDS011;10085;51.120;6.956;2023-05-10T06:33:42;26.38;;;9.95;;
19848;SDS011;10085;51.120;6.956;2023-05-10T06:38:46;21.58;;;10.30;;
19848;SDS011;10085;51.120;6.956;2023-05-10T06:43:49;20.52;;;8.70;;
19848;SDS011;10085;51.120;6.956;2023-05-10T06:48:52;16.63;;;8.32;;
19848;SDS011;10085;51.120;6.956;2023-05-10T06:54:00;22.05;;;10.43;;
19848;SDS011;10085;51.120;6.956;2023-05-10T06:59:03;22.73;;;9.25;;
19848;SDS011;10085;51.120;6.956;2023-05-10T07:04:06;22.95;;;10.32;;
19848;SDS011;10085;51.120;6.956;2023-05-10T07:09:10;26.00;;;10.68;;
19848;SDS011;10085;51.120;6.956;2023-05-10T07:14:12;23.90;;;10.02;;
19848;SDS011;10085;51.120;6.956;2023-05-10T07:19:15;18.60;;;9.82;;
19848;SDS011;10085;51.120;6.956;2023-05-10T07:24:21;24.25;;;10.85;;
19848;SDS011;10085;51.120;6.956;2023-05-10T07:29:24;22.05;;;10.30;;
19848;SDS011;10085;51.120;6.956;2023-05-10T07:34:27;22.40;;;9.60;;
19848;SDS011;10085;51.120;6.956;2023-05-10T07:39:32;18.95;;;8.95;;
19848;SDS011;10085;51.120;6.956;2023-05-10T07:44:35;27.63;;;13.48;;
19848;SDS011;10085;51.120;6.956;2023-05-10T07:49:37;25.60;;;10.68;;
19848;SDS011;10085;51.120;6.956;2023-05-10T07:54:41;26.17;;;10.00;;
19848;SDS011;10085;51.120;6.956;2023-05-10T07:59:45;27.65;;;10.95;;
19848;SDS011;10085;51.120;6.956;2023-05-10T08:04:48;25.00;;;10.55;;
19848;SDS011;10085;51.120;6.956;2023-05-10T08:09:52;25.35;;;10.68;;
19848;SDS011;10085;51.120;6.956;2023-05-10T08:14:55;20.02;;;8.60;;
19848;SDS011;10085;51.120;6.956;2023-05-10T08:19:58;32.67;;;10.30;;
19848;SDS011;10085;51.120;6.956;2023-05-10T08:25:02;23.60;;;8.80;;
19848;SDS011;10085;51.120;6.956;2023-05-10T08:30:05;27.73;;;9.52;;
19848;SDS011;10085;51.120;6.956;2023-05-10T08:35:09;24.48;;;9.20;;
19848;SDS011;10085;51.120;6.956;2023-05-10T08:40:13;30.58;;;11.70;;
19848;SDS011;10085;51.120;6.956;2023-05-10T08:45:16;19.77;;;9.45;;
19848;SDS011;10085;51.120;6.956;2023-05-10T08:50:20;27.13;;;10.07;;
19848;SDS011;10085;51.120;6.956;2023-05-10T08:55:25;23.65;;;8.50;;
19848;SDS011;10085;51.120;6.956;2023-05-10T09:00:28;23.90;;;8.55;;
19848;SDS011;10085;51.120;6.956;2023-05-10T09:05:31;22.65;;;10.02;;
19848;SDS011;10085;51.120;6.956;2023-05-10T09:10:35;24.85;;;10.23;;
19848;SDS011;10085;51.120;6.956;2023-05-10T09:15:38;29.40;;;11.00;;
19848;SDS011;10085;51.120;6.956;2023-05-10T09:20:40;27.40;;;11.25;;
19848;SDS011;10085;51.120;6.956;2023-05-10T09:25:44;26.35;;;11.18;;
19848;SDS011;10085;51.120;6.956;2023-05-10T09:30:47;28.33;;;12.10;;
19848;SDS011;10085;51.120;6.956;2023-05-10T09:36:05;32.00;;;12.05;;
19848;SDS011;10085;51.120;6.956;2023-05-10T09:41:16;29.27;;;10.35;;
19848;SDS011;10085;51.120;6.956;2023-05-10T09:46:19;35.50;;;14.38;;
19848;SDS011;10085;51.120;6.956;2023-05-10T09:51:22;37.53;;;14.13;;
19848;SDS011;10085;51.120;6.956;2023-05-10T09:56:34;40.33;;;14.20;;
19848;SDS011;10085;51.120;6.956;2023-05-10T10:01:37;36.83;;;13.82;;
19848;SDS011;10085;51.120;6.956;2023-05-10T10:06:40;46.40;;;13.05;;
19848;SDS011;10085;51.120;6.956;2023-05-10T10:11:44;36.20;;;13.13;;
19848;SDS011;10085;51.120;6.956;2023-05-10T10:16:47;38.17;;;15.15;;
19848;SDS011;10085;51.120;6.956;2023-05-10T10:22:07;40.30;;;14.65;;
19848;SDS011;10085;51.120;6.956;2023-05-10T10:27:18;41.33;;;14.35;;
19848;SDS011;10085;51.120;6.956;2023-05-10T10:32:25;40.03;;;15.65;;
19848;SDS011;10085;51.120;6.956;2023-05-10T10:37:41;35.03;;;13.02;;
19848;SDS011;10085;51.120;6.956;2023-05-10T10:42:46;35.40;;;12.55;;
19848;SDS011;10085;51.120;6.956;2023-05-10T10:47:53;34.95;;;13.35;;
19848;SDS011;10085;51.120;6.956;2023-05-10T10:53:11;28.10;;;13.10;;
19848;SDS011;10085;51.120;6.956;2023-05-10T11:03:33;35.63;;;15.02;;
19848;SDS011;10085;51.120;6.956;2023-05-10T11:08:41;29.73;;;13.18;;
19848;SDS011;10085;51.120;6.956;2023-05-10T11:13:47;28.98;;;12.13;;
19848;SDS011;10085;51.120;6.956;2023-05-10T11:18:52;31.10;;;10.93;;
19848;SDS011;10085;51.120;6.956;2023-05-10T11:23:56;25.90;;;10.77;;
19848;SDS011;10085;51.120;6.956;2023-05-10T11:29:01;25.05;;;11.48;;
19848;SDS011;10085;51.120;6.956;2023-05-10T11:34:06;28.45;;;11.38;;
19848;SDS011;10085;51.120;6.956;2023-05-10T11:39:08;23.42;;;11.25;;
19848;SDS011;10085;51.120;6.956;2023-05-10T11:44:13;23.38;;;10.77;;
19848;SDS011;10085;51.120;6.956;2023-05-10T11:49:17;24.80;;;12.05;;
19848;SDS011;10085;51.120;6.956;2023-05-10T11:54:20;31.17;;;14.32;;
19848;SDS011;10085;51.120;6.956;2023-05-10T11:59:24;27.42;;;12.05;;
19848;SDS011;10085;51.120;6.956;2023-05-10T12:04:27;22.83;;;10.50;;
19848;SDS011;10085;51.120;6.956;2023-05-10T12:09:30;24.15;;;10.63;;
19848;SDS011;10085;51.120;6.956;2023-05-10T12:14:45;23.75;;;10.60;;
19848;SDS011;10085;51.120;6.956;2023-05-10T12:19:51;26.30;;;10.57;;
19848;SDS011;10085;51.120;6.956;2023-05-10T12:24:54;21.55;;;10.70;;
19848;SDS011;10085;51.120;6.956;2023-05-10T12:30:00;20.77;;;10.35;;
19848;SDS011;10085;51.120;6.956;2023-05-10T12:35:03;37.92;;;17.08;;
19848;SDS011;10085;51.120;6.956;2023-05-10T12:40:06;23.30;;;11.45;;
19848;SDS011;10085;51.120;6.956;2023-05-10T12:45:12;25.85;;;10.27;;
19848;SDS011;10085;51.120;6.956;2023-05-10T12:50:14;22.38;;;11.35;;
19848;SDS011;10085;51.120;6.956;2023-05-10T12:55:17;23.17;;;10.23;;
19848;SDS011;10085;51.120;6.956;2023-05-10T13:00:21;27.08;;;11.65;;
19848;SDS011;10085;51.120;6.956;2023-05-10T13:05:24;34.28;;;14.40;;
19848;SDS011;10085;51.120;6.956;2023-05-10T13:10:28;25.45;;;10.07;;
19848;SDS011;10085;51.120;6.956;2023-05-10T13:15:32;23.65;;;10.18;;
19848;SDS011;10085;51.120;6.956;2023-05-10T13:20:35;32.17;;;10.52;;
19848;SDS011;10085;51.120;6.956;2023-05-10T13:25:38;25.38;;;10.88;;
19848;SDS011;10085;51.120;6.956;2023-05-10T13:30:42;24.85;;;10.50;;
19848;SDS011;10085;51.120;6.956;2023-05-10T13:35:45;21.65;;;10.40;;
19848;SDS011;10085;51.120;6.956;2023-05-10T13:40:47;20.30;;;10.38;;
19848;SDS011;10085;51.120;6.956;2023-05-10T13:45:55;20.45;;;10.18;;
19848;SDS011;10085;51.120;6.956;2023-05-10T13:50:58;25.35;;;11.23;;
19848;SDS011;10085;51.120;6.956;2023-05-10T13:56:00;27.20;;;11.80;;
19848;SDS011;10085;51.120;6.956;2023-05-10T14:01:05;32.80;;;12.45;;
19848;SDS011;10085;51.120;6.956;2023-05-10T14:06:08;31.58;;;12.98;;
19848;SDS011;10085;51.120;6.956;2023-05-10T14:11:10;30.05;;;12.82;;
19848;SDS011;10085;51.120;6.956;2023-05-10T14:16:15;26.17;;;11.85;;
19848;SDS011;10085;51.120;6.956;2023-05-10T14:21:18;24.40;;;11.38;;
19848;SDS011;10085;51.120;6.956;2023-05-10T14:26:20;29.65;;;12.45;;
19848;SDS011;10085;51.120;6.956;2023-05-10T14:31:24;29.00;;;12.02;;
19848;SDS011;10085;51.120;6.956;2023-05-10T14:36:27;23.85;;;10.70;;
19848;SDS011;10085;51.120;6.956;2023-05-10T14:41:30;26.38;;;10.68;;
19848;SDS011;10085;51.120;6.956;2023-05-10T14:46:34;20.45;;;10.05;;
19848;SDS011;10085;51.120;6.956;2023-05-10T14:51:37;26.95;;;10.40;;
19848;SDS011;10085;51.120;6.956;2023-05-10T14:56:39;21.42;;;9.25;;
19848;SDS011;10085;51.120;6.956;2023-05-10T15:01:44;20.70;;;8.82;;
19848;SDS011;10085;51.120;6.956;2023-05-10T15:06:47;18.60;;;8.23;;
19848;SDS011;10085;51.120;6.956;2023-05-10T15:11:50;17.10;;;7.95;;
19848;SDS011;10085;51.120;6.956;2023-05-10T15:16:54;19.00;;;7.80;;
19848;SDS011;10085;51.120;6.956;2023-05-10T15:21:56;17.15;;;8.25;;
19848;SDS011;10085;51.120;6.956;2023-05-10T15:26:59;17.73;;;8.45;;
19848;SDS011;10085;51.120;6.956;2023-05-10T15:32:03;16.02;;;7.47;;
19848;SDS011;10085;51.120;6.956;2023-05-10T15:37:08;16.17;;;7.18;;
19848;SDS011;10085;51.120;6.956;2023-05-10T15:42:11;12.48;;;6.43;;
19848;SDS011;10085;51.120;6.956;2023-05-10T15:47:15;12.95;;;6.63;;
19848;SDS011;10085;51.120;6.956;2023-05-10T15:52:18;13.00;;;6.40;;
19848;SDS011;10085;51.120;6.956;2023-05-10T15:57:21;11.63;;;5.18;;
19848;SDS011;10085;51.120;6.956;2023-05-10T16:02:25;11.73;;;5.88;;
19848;SDS011;10085;51.120;6.956;2023-05-10T16:07:28;10.27;;;5.13;;
19848;SDS011;10085;51.120;6.956;2023-05-10T16:12:30;11.00;;;5.38;;
19848;SDS011;10085;51.120;6.956;2023-05-10T16:17:34;9.77;;;5.55;;
19848;SDS011;10085;51.120;6.956;2023-05-10T16:22:38;11.20;;;5.60;;
19848;SDS011;10085;51.120;6.956;2023-05-10T16:27:42;10.90;;;5.30;;
19848;SDS011;10085;51.120;6.956;2023-05-10T17:13:07;11.40;;;5.53;;
19848;SDS011;10085;51.120;6.956;2023-05-10T17:18:11;12.07;;;5.55;;
19848;SDS011;10085;51.120;6.956;2023-05-10T17:23:25;9.73;;;4.63;;
19848;SDS011;10085;51.120;6.956;2023-05-10T17:28:42;7.40;;;4.45;;
19848;SDS011;10085;51.120;6.956;2023-05-10T17:34:53;11.85;;;6.18;;
19848;SDS011;10085;51.120;6.956;2023-05-10T18:00:19;16.13;;;7.10;;
19848;SDS011;10085;51.120;6.956;2023-05-10T18:06:15;12.50;;;5.90;;
19848;SDS011;10085;51.120;6.956;2023-05-10T18:11:18;9.20;;;5.93;;
19848;SDS011;10085;51.120;6.956;2023-05-10T18:16:23;5.07;;;3.42;;
19848;SDS011;10085;51.120;6.956;2023-05-10T18:21:26;5.68;;;3.50;;
19848;SDS011;10085;51.120;6.956;2023-05-10T18:26:29;6.10;;;3.40;;
19848;SDS011;10085;51.120;6.956;2023-05-10T18:31:33;6.82;;;3.38;;
19848;SDS011;10085;51.120;6.956;2023-05-10T18:36:35;6.20;;;3.28;;
19848;SDS011;10085;51.120;6.956;2023-05-10T18:41:38;7.05;;;3.20;;
19848;SDS011;10085;51.120;6.956;2023-05-10T18:46:42;5.70;;;3.47;;
19848;SDS011;10085;51.120;6.956;2023-05-10T18:51:45;6.22;;;3.75;;
19848;SDS011;10085;51.120;6.956;2023-05-10T18:56:54;8.48;;;4.40;;
19848;SDS011;10085;51.120;6.956;2023-05-10T19:02:00;7.03;;;3.95;;
19848;SDS011;10085;51.120;6.956;2023-05-10T19:07:03;9.88;;;4.50;;
19848;SDS011;10085;51.120;6.956;2023-05-10T19:12:05;10.18;;;5.43;;
19848;SDS011;10085;51.120;6.956;2023-05-10T19:17:10;8.27;;;5.05;;
19848;SDS011;10085;51.120;6.956;2023-05-10T19:22:13;8.90;;;5.13;;
19848;SDS011;10085;51.120;6.956;2023-05-10T19:27:16;10.63;;;4.70;;
19848;SDS011;10085;51.120;6.956;2023-05-10T19:32:20;7.50;;;4.75;;
19848;SDS011;10085;51.120;6.956;2023-05-10T19:37:24;9.90;;;5.47;;
19848;SDS011;10085;51.120;6.956;2023-05-10T19:42:27;10.95;;;5.57;;
19848;SDS011;10085;51.120;6.956;2023-05-10T19:47:31;9.57;;;5.30;;
19848;SDS011;10085;51.120;6.956;2023-05-10T19:52:35;12.05;;;5.50;;
19848;SDS011;10085;51.120;6.956;2023-05-10T19:57:38;10.68;;;5.93;;
19848;SDS011;10085;51.120;6.956;2023-05-10T20:02:42;11.40;;;6.00;;
19848;SDS011;10085;51.120;6.956;2023-05-10T20:07:45;11.45;;;7.20;;
19848;SDS011;10085;51.120;6.956;2023-05-10T20:12:48;13.82;;;6.78;;
19848;SDS011;10085;51.120;6.956;2023-05-10T20:17:54;12.93;;;7.28;;
19848;SDS011;10085;51.120;6.956;2023-05-10T20:22:57;15.15;;;8.10;;
19848;SDS011;10085;51.120;6.956;2023-05-10T20:27:59;13.15;;;6.80;;
19848;SDS011;10085;51.120;6.956;2023-05-10T20:33:04;13.65;;;7.60;;
19848;SDS011;10085;51.120;6.956;2023-05-10T20:38:07;13.07;;;7.20;;
19848;SDS011;10085;51.120;6.956;2023-05-10T20:43:09;11.32;;;7.22;;
19848;SDS011;10085;51.120;6.956;2023-05-10T20:48:13;14.63;;;7.85;;
19848;SDS011;10085;51.120;6.956;2023-05-10T20:53:16;14.85;;;7.22;;
19848;SDS011;10085;51.120;6.956;2023-05-10T20:58:21;14.48;;;7.68;;
19848;SDS011;10085;51.120;6.956;2023-05-10T21:03:28;13.60;;;7.65;;
19848;SDS011;10085;51.120;6.956;2023-05-10T21:08:31;14.05;;;8.10;;
19848;SDS011;10085;51.120;6.956;2023-05-10T21:13:33;15.05;;;7.63;;
19848;SDS011;10085;51.120;6.956;2023-05-10T21:18:37;14.25;;;8.18;;
19848;SDS011;10085;51.120;6.956;2023-05-10T21:23:40;14.77;;;7.40;;
19848;SDS011;10085;51.120;6.956;2023-05-10T21:28:43;15.10;;;8.55;;
19848;SDS011;10085;51.120;6.956;2023-05-10T21:33:47;14.70;;;8.05;;
19848;SDS011;10085;51.120;6.956;2023-05-10T21:38:50;15.63;;;8.50;;
19848;SDS011;10085;51.120;6.956;2023-05-10T21:43:52;19.70;;;8.93;;
19848;SDS011;10085;51.120;6.956;2023-05-10T21:48:57;19.55;;;9.50;;
19848;SDS011;10085;51.120;6.956;2023-05-10T21:54:00;16.77;;;9.57;;
19848;SDS011;10085;51.120;6.956;2023-05-10T21:59:03;15.52;;;8.50;;
19848;SDS011;10085;51.120;6.956;2023-05-10T22:04:07;15.63;;;8.85;;
19848;SDS011;10085;51.120;6.956;2023-05-10T22:09:09;18.60;;;9.70;;
19848;SDS011;10085;51.120;6.956;2023-05-10T22:14:12;17.27;;;8.88;;
19848;SDS011;10085;51.120;6.956;2023-05-10T22:19:16;17.15;;;9.23;;
19848;SDS011;10085;51.120;6.956;2023-05-10T22:24:19;19.30;;;8.90;;
19848;SDS011;10085;51.120;6.956;2023-05-10T22:29:21;17.83;;;9.23;;
19848;SDS011;10085;51.120;6.956;2023-05-10T22:34:26;16.20;;;8.38;;
19848;SDS011;10085;51.120;6.956;2023-05-10T22:39:28;16.83;;;8.85;;
19848;SDS011;10085;51.120;6.956;2023-05-10T22:44:31;18.75;;;9.02;;
19848;SDS011;10085;51.120;6.956;2023-05-10T22:49:35;23.52;;;10.38;;
19848;SDS011;10085;51.120;6.956;2023-05-10T22:54:38;21.30;;;10.48;;
19848;SDS011;10085;51.120;6.956;2023-05-10T23:05:35;22.35;;;10.10;;
19848;SDS011;10085;51.120;6.956;2023-05-10T23:10:38;21.45;;;10.13;;
19848;SDS011;10085;51.120;6.956;2023-05-10T23:15:40;23.15;;;9.88;;
19848;SDS011;10085;51.120;6.956;2023-05-10T23:20:45;22.63;;;9.10;;
19848;SDS011;10085;51.120;6.956;2023-05-10T23:25:47;19.98;;;10.23;;
19848;SDS011;10085;51.120;6.956;2023-05-10T23:30:53;22.65;;;10.48;;
19848;SDS011;10085;51.120;6.956;2023-05-10T23:35:57;22.10;;;10.93;;
19848;SDS011;10085;51.120;6.956;2023-05-10T23:41:00;21.98;;;10.18;;
19848;SDS011;10085;51.120;6.956;2023-05-10T23:46:02;22.33;;;10.57;;
19848;SDS011;10085;51.120;6.956;2023-05-10T23:51:08;19.20;;;9.95;;
19848;SDS011;10085;51.120;6.956;2023-05-10T23:56:10;20.88;;;10.32;;
